Login to view products.
 
Tuesday, January 22, 2019 (09:22 UTC)
Al Bateen Executive Airport
ICAO: OMAD
IATA: AZI
  • METAR OMAD 220900Z 28008KT 230V320 9999 SCT035 22/12 Q1017 NOSIG=
  • TAF OMAD 220500Z 2206/2312 30010KT 9999 SCT035 BECMG 2300/2302 20005KT PROB30 2302/2305 4000 HZ BECMG 2305/2307 30010KT=
D:\Input Parser\Destinations\Final\05\OMADL06120500575664118.txt
1